createdAt,value
2019-02-06T00:01:39.936Z,419.57
2019-02-06T00:04:07.759Z,403.97
2019-02-06T00:06:35.843Z,418.50
2019-02-06T00:09:12.704Z,423.57
2019-02-06T00:11:40.490Z,419.43
2019-02-06T00:14:09.254Z,422.33
2019-02-06T00:16:37.059Z,441.57
2019-02-06T00:19:05.015Z,427.83
2019-02-06T00:21:32.678Z,423.67
2019-02-06T00:24:04.170Z,392.83
2019-02-06T00:26:31.739Z,401.50
2019-02-06T00:28:59.259Z,419.30
2019-02-06T00:31:26.713Z,406.93
2019-02-06T00:33:54.262Z,423.03
2019-02-06T00:36:22.140Z,380.40
2019-02-06T00:38:50.175Z,413.37
2019-02-06T00:41:17.768Z,404.23
2019-02-06T00:43:45.369Z,412.33
2019-02-06T00:46:14.017Z,421.00
2019-02-06T00:48:41.643Z,408.90
2019-02-06T00:51:10.317Z,419.33
2019-02-06T00:53:37.900Z,420.17
2019-02-06T00:56:05.821Z,424.53
2019-02-06T00:58:33.585Z,399.57
2019-02-06T01:01:01.050Z,404.37
2019-02-06T01:03:28.754Z,396.27
2019-02-06T01:05:56.508Z,414.33
2019-02-06T01:08:24.260Z,413.00
2019-02-06T01:10:52.809Z,413.73
2019-02-06T01:13:20.829Z,421.40
2019-02-06T01:15:48.408Z,389.30
2019-02-06T01:18:16.687Z,388.90
2019-02-06T01:20:44.407Z,397.20
2019-02-06T01:23:16.061Z,415.20
2019-02-06T01:25:43.338Z,415.87
2019-02-06T01:28:10.901Z,408.27
2019-02-06T01:30:50.893Z,418.93
2019-02-06T01:33:18.472Z,422.33
2019-02-06T01:35:49.910Z,400.10
2019-02-06T01:38:17.188Z,412.73
2019-02-06T01:40:45.117Z,417.53
2019-02-06T01:43:12.531Z,447.33
2019-02-06T01:45:40.469Z,417.77
2019-02-06T01:48:08.239Z,453.23
2019-02-06T01:50:36.077Z,420.90
2019-02-06T01:53:03.827Z,413.13
2019-02-06T01:55:31.487Z,418.73
2019-02-06T01:57:59.130Z,437.30
2019-02-06T02:00:26.852Z,417.43
2019-02-06T02:02:54.834Z,421.87
2019-02-06T02:05:23.543Z,389.03
2019-02-06T02:07:51.528Z,436.10
2019-02-06T02:10:20.560Z,395.70
2019-02-06T02:12:49.364Z,446.67
2019-02-06T02:15:17.364Z,441.63
2019-02-06T02:17:46.092Z,441.77
2019-02-06T02:20:17.110Z,409.03
2019-02-06T02:22:44.678Z,431.10
2019-02-06T02:25:12.548Z,392.70
2019-02-06T02:27:40.230Z,413.20
2019-02-06T02:30:11.185Z,388.47
2019-02-06T02:32:38.902Z,446.60
2019-02-06T02:35:07.071Z,433.53
2019-02-06T02:37:34.699Z,434.10
2019-02-06T02:40:02.744Z,420.23
2019-02-06T02:42:30.626Z,435.00
2019-02-06T02:44:58.185Z,403.13
2019-02-06T02:47:25.707Z,442.40
2019-02-06T02:49:53.394Z,393.97
2019-02-06T02:52:21.376Z,445.23
2019-02-06T02:54:49.191Z,397.10
2019-02-06T02:57:16.927Z,442.43
2019-02-06T02:59:44.408Z,406.93
2019-02-06T03:02:38.834Z,424.23
2019-02-06T03:05:11.695Z,401.97
2019-02-06T03:07:40.301Z,450.07
2019-02-06T03:10:09.229Z,386.27
2019-02-06T03:12:37.097Z,413.00
2019-02-06T03:15:05.738Z,374.43
2019-02-06T03:17:33.281Z,416.80
2019-02-06T03:20:00.874Z,399.57
2019-02-06T03:22:28.581Z,428.60
2019-02-06T03:24:56.244Z,413.57
2019-02-06T03:27:23.829Z,429.50
2019-02-06T03:29:51.472Z,397.33
2019-02-06T03:32:18.978Z,421.13
2019-02-06T03:34:46.657Z,391.67
2019-02-06T03:37:14.290Z,432.57
2019-02-06T03:39:42.112Z,390.13
2019-02-06T03:42:10.119Z,407.20
2019-02-06T03:44:37.924Z,389.60
2019-02-06T03:47:05.499Z,418.23
2019-02-06T03:49:33.112Z,388.20
2019-02-06T03:52:00.802Z,399.97
2019-02-06T03:54:28.694Z,397.43
2019-02-06T03:56:56.389Z,398.57
2019-02-06T03:59:26.045Z,391.67
2019-02-06T04:01:53.876Z,378.77
2019-02-06T04:04:21.637Z,383.67
2019-02-06T04:06:56.438Z,391.73
2019-02-06T04:09:19.099Z,389.80
2019-02-06T04:11:46.948Z,384.43
2019-02-06T04:14:14.692Z,396.90
2019-02-06T04:16:42.455Z,390.83
2019-02-06T04:19:10.204Z,379.43
2019-02-06T04:21:38.038Z,397.30
2019-02-06T04:24:05.680Z,390.30
2019-02-06T04:26:33.157Z,370.57
2019-02-06T04:29:01.099Z,389.37
2019-02-06T04:31:28.582Z,383.37
2019-02-06T04:33:57.213Z,369.73
2019-02-06T04:36:24.929Z,402.27
2019-02-06T04:38:52.473Z,389.63
2019-02-06T04:41:19.999Z,373.43
2019-02-06T04:43:47.864Z,384.03
2019-02-06T04:46:19.051Z,366.20
2019-02-06T04:48:46.683Z,397.70
2019-02-06T04:51:14.445Z,380.60
2019-02-06T04:53:41.990Z,374.20
2019-02-06T04:56:09.705Z,389.63
2019-02-06T04:58:37.254Z,382.23
2019-02-06T05:01:04.945Z,380.53
2019-02-06T05:03:32.870Z,367.73
2019-02-06T05:06:00.268Z,385.97
2019-02-06T05:08:28.098Z,369.53
2019-02-06T05:10:55.756Z,398.97
2019-02-06T05:13:23.152Z,392.80
2019-02-06T05:15:50.789Z,374.30
2019-02-06T05:18:18.526Z,381.53
2019-02-06T05:20:46.130Z,394.53
2019-02-06T05:23:13.898Z,378.93
2019-02-06T05:25:42.201Z,387.20
2019-02-06T05:28:11.747Z,389.20
2019-02-06T05:30:39.408Z,384.60
2019-02-06T05:33:06.941Z,399.20
2019-02-06T05:35:34.625Z,377.83
2019-02-06T05:38:02.329Z,391.47
2019-02-06T05:40:30.159Z,398.67
2019-02-06T05:42:57.931Z,424.33
2019-02-06T05:45:25.614Z,401.27
2019-02-06T05:47:53.155Z,413.70
2019-02-06T05:50:20.799Z,390.57
2019-02-06T05:52:48.562Z,426.27
2019-02-06T05:55:16.777Z,398.90
2019-02-06T05:57:45.049Z,421.80
2019-02-06T06:00:17.628Z,382.53
2019-02-06T06:02:45.344Z,412.77
2019-02-06T06:05:13.737Z,379.87
2019-02-06T06:07:45.176Z,418.13
2019-02-06T06:10:14.015Z,387.60
2019-02-06T06:12:41.845Z,404.30
2019-02-06T06:15:12.773Z,381.33
2019-02-06T06:17:42.397Z,402.97
2019-02-06T06:20:11.073Z,391.13
2019-02-06T06:22:38.736Z,421.07
2019-02-06T06:25:07.548Z,358.40
2019-02-06T06:27:35.292Z,412.10
2019-02-06T06:30:06.691Z,374.17
2019-02-06T06:32:34.315Z,402.50
2019-02-06T06:35:02.203Z,392.50
2019-02-06T06:37:29.677Z,407.73
2019-02-06T06:39:57.139Z,364.57
2019-02-06T06:42:24.789Z,414.23
2019-02-06T06:44:52.405Z,359.83
2019-02-06T06:47:20.151Z,409.57
2019-02-06T06:49:47.574Z,360.83
2019-02-06T06:52:14.961Z,409.87
2019-02-06T06:54:42.424Z,387.20
2019-02-06T06:57:12.275Z,382.13
2019-02-06T06:59:39.425Z,350.97
2019-02-06T07:02:07.102Z,407.40
2019-02-06T07:04:34.776Z,385.17
2019-02-06T07:07:02.292Z,387.27
2019-02-06T07:09:29.828Z,359.77
2019-02-06T07:11:57.556Z,370.70
2019-02-06T07:14:24.919Z,398.90
2019-02-06T07:16:52.612Z,383.90
2019-02-06T07:19:19.929Z,395.63
2019-02-06T07:21:47.706Z,386.90
2019-02-06T07:24:15.205Z,394.77
2019-02-06T07:26:42.983Z,393.67
2019-02-06T07:29:10.720Z,362.63
2019-02-06T07:31:38.611Z,377.30
2019-02-06T07:34:08.921Z,372.27
2019-02-06T07:36:37.893Z,382.37
2019-02-06T07:39:08.853Z,392.00
2019-02-06T07:41:36.985Z,354.50
2019-02-06T07:44:06.947Z,363.73
2019-02-06T07:46:37.111Z,401.73
2019-02-06T07:49:14.878Z,364.60
2019-02-06T07:51:43.324Z,376.00
2019-02-06T07:54:13.503Z,391.63
2019-02-06T07:56:41.028Z,377.60
2019-02-06T07:59:09.680Z,412.23
2019-02-06T08:01:37.968Z,377.40
2019-02-06T08:04:05.643Z,373.57
2019-02-06T08:06:35.511Z,370.13
2019-02-06T08:09:10.427Z,362.67
2019-02-06T08:11:38.050Z,367.27
2019-02-06T08:14:09.294Z,342.33
2019-02-06T08:16:40.167Z,337.93
2019-02-06T08:19:08.311Z,392.53
2019-02-06T08:21:41.934Z,385.97
2019-02-06T08:24:11.095Z,384.37
2019-02-06T08:26:40.108Z,370.20
2019-02-06T08:29:07.734Z,389.70
2019-02-06T08:31:38.102Z,382.63
2019-02-06T08:34:06.007Z,358.63
2019-02-06T08:36:35.874Z,380.60
2019-02-06T08:39:07.840Z,385.87
2019-02-06T08:41:37.465Z,389.07
2019-02-06T08:44:06.361Z,351.37
2019-02-06T08:46:36.263Z,345.50
2019-02-06T08:49:07.282Z,354.93
2019-02-06T08:51:36.857Z,350.47
2019-02-06T08:54:05.125Z,383.83
2019-02-06T08:56:32.500Z,390.00
2019-02-06T08:58:59.958Z,375.23
2019-02-06T09:01:30.764Z,373.97
2019-02-06T09:04:31.481Z,395.67
2019-02-06T09:07:05.989Z,390.93
2019-02-06T09:09:33.742Z,402.93
2019-02-06T09:12:01.318Z,406.50
2019-02-06T09:14:28.790Z,381.93
2019-02-06T09:16:56.748Z,386.93
2019-02-06T09:19:24.223Z,378.40
2019-02-06T09:21:51.789Z,385.30
2019-02-06T09:24:20.404Z,401.73
2019-02-06T09:26:47.956Z,396.27
2019-02-06T09:29:15.323Z,397.10
2019-02-06T09:31:42.869Z,397.20
2019-02-06T09:34:10.684Z,400.17
2019-02-06T09:36:38.502Z,389.10
2019-02-06T09:39:11.727Z,391.27
2019-02-06T09:41:38.417Z,391.90
2019-02-06T09:44:05.905Z,377.27
2019-02-06T09:46:33.547Z,388.93
2019-02-06T09:49:01.045Z,389.33
2019-02-06T09:51:29.028Z,358.47
2019-02-06T09:53:56.459Z,366.33
2019-02-06T09:56:24.168Z,365.97
2019-02-06T09:58:51.533Z,368.30
2019-02-06T10:01:21.400Z,373.53
2019-02-06T10:03:48.390Z,357.67
2019-02-06T10:06:15.970Z,384.87
2019-02-06T10:08:43.379Z,379.20
2019-02-06T10:11:10.913Z,391.90
2019-02-06T10:13:38.392Z,371.00
2019-02-06T10:16:05.963Z,380.00
2019-02-06T10:18:33.443Z,387.30
2019-02-06T10:21:00.924Z,366.50
2019-02-06T10:23:28.288Z,371.47
2019-02-06T10:25:55.775Z,403.30
2019-02-06T10:28:24.403Z,378.67
2019-02-06T10:30:52.722Z,381.70
2019-02-06T10:33:20.738Z,390.00
2019-02-06T10:35:48.225Z,348.73
2019-02-06T10:38:15.954Z,368.47
2019-02-06T10:40:43.649Z,372.10
2019-02-06T10:43:11.343Z,358.30
2019-02-06T10:45:39.096Z,341.30
2019-02-06T10:48:09.034Z,329.80
2019-02-06T10:50:44.963Z,353.37
2019-02-06T10:53:13.583Z,320.07
2019-02-06T10:55:43.624Z,312.37
2019-02-06T10:58:11.974Z,362.63
2019-02-06T11:00:49.016Z,328.93
2019-02-06T11:03:17.353Z,331.33
2019-02-06T11:05:44.999Z,363.10
2019-02-06T11:08:12.493Z,361.43
2019-02-06T11:10:41.690Z,327.77
2019-02-06T11:13:09.532Z,318.20
2019-02-06T11:15:37.825Z,343.60
2019-02-06T11:18:05.939Z,344.87
2019-02-06T11:20:38.313Z,343.00
2019-02-06T11:23:08.704Z,363.17
2019-02-06T11:25:36.889Z,317.50
2019-02-06T11:28:07.131Z,348.33
2019-02-06T11:30:35.456Z,362.03
2019-02-06T11:33:04.210Z,350.10
2019-02-06T11:35:32.829Z,322.73
2019-02-06T11:38:00.932Z,358.17
2019-02-06T11:40:28.915Z,328.00
2019-02-06T11:42:56.517Z,359.73
2019-02-06T11:45:30.845Z,304.63
2019-02-06T11:48:07.205Z,318.00
2019-02-06T11:50:41.149Z,313.27
2019-02-06T11:53:28.511Z,298.27
2019-02-06T11:55:56.501Z,340.37
2019-02-06T11:58:25.049Z,342.43
2019-02-06T12:01:22.054Z,313.90
2019-02-06T12:03:53.517Z,350.23
2019-02-06T12:06:21.324Z,344.50
2019-02-06T12:08:52.488Z,347.87
2019-02-06T12:11:20.327Z,321.73
2019-02-06T12:13:48.642Z,322.00
2019-02-06T12:16:18.827Z,306.50
2019-02-06T12:18:48.258Z,336.63
2019-02-06T12:21:18.010Z,319.10
2019-02-06T12:23:45.698Z,321.97
2019-02-06T12:26:13.552Z,371.53
2019-02-06T12:28:41.257Z,341.27
2019-02-06T12:31:09.011Z,346.97
2019-02-06T12:33:36.833Z,331.80
2019-02-06T12:36:04.466Z,343.13
2019-02-06T12:38:32.038Z,318.17
2019-02-06T12:40:59.825Z,367.77
2019-02-06T12:43:27.387Z,349.97
2019-02-06T12:45:54.969Z,316.17
2019-02-06T12:48:22.416Z,350.47
2019-02-06T12:50:50.116Z,332.20
2019-02-06T12:53:17.595Z,336.60
2019-02-06T12:55:45.214Z,365.70
2019-02-06T12:58:13.021Z,357.93
2019-02-06T13:00:41.331Z,358.53
2019-02-06T13:03:10.920Z,355.97
2019-02-06T13:05:38.847Z,335.10
2019-02-06T13:08:06.995Z,358.70
2019-02-06T13:10:34.683Z,347.63
2019-02-06T13:13:04.445Z,346.27
2019-02-06T13:15:32.405Z,297.47
2019-02-06T13:18:00.216Z,375.67
2019-02-06T13:20:28.546Z,350.40
2019-02-06T13:22:56.453Z,359.73
2019-02-06T13:25:24.291Z,346.03
2019-02-06T13:27:51.974Z,379.63
2019-02-06T13:30:23.554Z,328.17
2019-02-06T13:32:51.466Z,396.70
2019-02-06T13:35:20.366Z,337.27
2019-02-06T13:37:48.129Z,396.73
2019-02-06T13:40:17.998Z,354.03
2019-02-06T13:42:45.587Z,359.40
2019-02-06T13:45:19.774Z,362.27
2019-02-06T13:47:47.959Z,375.73
2019-02-06T13:50:22.115Z,361.87
2019-02-06T13:52:45.400Z,378.90
2019-02-06T13:55:14.523Z,343.57
2019-02-06T13:57:43.158Z,386.03
2019-02-06T14:00:15.555Z,364.73
2019-02-06T14:02:44.198Z,391.43
2019-02-06T14:05:13.851Z,342.40
2019-02-06T14:07:43.331Z,384.33
2019-02-06T14:10:16.837Z,337.47
2019-02-06T14:12:49.284Z,351.07
2019-02-06T14:15:44.181Z,355.57
2019-02-06T14:18:17.076Z,363.33
2019-02-06T14:20:52.917Z,346.73
2019-02-06T14:23:39.634Z,329.10
2019-02-06T14:27:06.561Z,327.13
2019-02-06T14:30:21.432Z,302.83
2019-02-06T14:33:25.049Z,394.60
2019-02-06T14:36:37.505Z,347.47
2019-02-06T14:39:43.580Z,318.70
2019-02-06T14:43:07.853Z,348.13
2019-02-06T14:46:23.024Z,344.37
2019-02-06T14:49:25.859Z,340.00
2019-02-06T14:52:41.205Z,331.27
2019-02-06T14:56:04.878Z,334.63
2019-02-06T14:59:35.590Z,327.17
2019-02-06T15:02:53.432Z,333.50
2019-02-06T15:06:43.402Z,331.03
2019-02-06T15:10:02.269Z,314.40
2019-02-06T15:13:29.084Z,350.23
2019-02-06T15:17:00.328Z,316.17
2019-02-06T15:19:47.356Z,329.53
2019-02-06T15:23:20.870Z,384.50
2019-02-06T15:26:57.603Z,332.53
2019-02-06T15:30:27.729Z,327.80
2019-02-06T15:33:53.577Z,350.23
2019-02-06T15:37:04.164Z,315.97
2019-02-06T15:40:14.569Z,336.83
2019-02-06T15:43:47.449Z,386.17
2019-02-06T15:47:19.807Z,330.00
2019-02-06T15:50:26.882Z,328.53
2019-02-06T15:53:53.657Z,369.60
2019-02-06T15:57:21.522Z,340.13
2019-02-06T16:00:20.067Z,340.70
2019-02-06T16:03:01.938Z,393.73
2019-02-06T16:06:10.547Z,354.70
2019-02-06T16:09:28.444Z,348.03
2019-02-06T16:12:48.518Z,348.60
2019-02-06T16:15:54.259Z,352.53
2019-02-06T16:19:21.063Z,336.73
2019-02-06T16:22:45.742Z,330.53
2019-02-06T16:26:04.019Z,350.87
2019-02-06T16:29:41.250Z,337.07
2019-02-06T16:33:10.386Z,385.23
2019-02-06T16:36:35.626Z,372.80
2019-02-06T16:40:13.366Z,354.53
2019-02-06T16:43:37.370Z,419.10
2019-02-06T16:47:22.220Z,359.87
2019-02-06T16:50:36.778Z,361.67
2019-02-06T16:53:48.136Z,365.03
2019-02-06T16:56:40.870Z,369.33
2019-02-06T17:00:09.847Z,348.47
2019-02-06T17:03:18.652Z,399.77
2019-02-06T17:06:33.613Z,342.23
2019-02-06T17:09:52.306Z,383.97
2019-02-06T17:13:15.596Z,409.43
2019-02-06T17:16:45.965Z,380.00
2019-02-06T17:19:49.260Z,368.67
2019-02-06T17:22:58.419Z,386.37
2019-02-06T17:26:25.938Z,323.27
2019-02-06T17:30:05.279Z,377.17
2019-02-06T17:33:18.262Z,424.33
2019-02-06T17:36:49.314Z,361.43
2019-02-06T17:40:02.528Z,380.93
2019-02-06T17:43:25.755Z,415.53
2019-02-06T17:46:50.073Z,364.53
2019-02-06T17:50:18.478Z,361.63
2019-02-06T17:53:40.304Z,398.33
2019-02-06T17:56:07.960Z,368.10
2019-02-06T17:58:41.454Z,366.77
2019-02-06T18:01:41.936Z,381.37
2019-02-06T18:04:41.513Z,355.73
2019-02-06T18:07:09.931Z,383.67
2019-02-06T18:09:39.783Z,375.47
2019-02-06T18:12:09.574Z,378.97
2019-02-06T18:14:37.562Z,373.10
2019-02-06T18:17:07.950Z,378.57
2019-02-06T18:19:40.958Z,376.80
2019-02-06T18:22:10.619Z,409.37
2019-02-06T18:24:38.436Z,438.77
2019-02-06T18:27:06.708Z,417.83
2019-02-06T18:29:34.951Z,435.60
2019-02-06T18:32:03.522Z,436.93
2019-02-06T18:34:33.288Z,411.13
2019-02-06T18:37:01.450Z,435.97
2019-02-06T18:39:29.476Z,435.27
2019-02-06T18:41:57.815Z,428.67
2019-02-06T18:44:26.813Z,434.23
2019-02-06T18:46:58.551Z,432.03
2019-02-06T18:49:26.913Z,432.23
2019-02-06T18:51:55.240Z,417.77
2019-02-06T18:54:23.867Z,416.50
2019-02-06T18:56:52.120Z,414.40
2019-02-06T18:59:20.349Z,422.20
2019-02-06T19:01:48.216Z,409.50
2019-02-06T19:04:18.894Z,423.03
2019-02-06T19:06:46.833Z,415.53
2019-02-06T19:09:16.171Z,409.93
2019-02-06T19:11:44.228Z,393.83
2019-02-06T19:14:12.435Z,422.73
2019-02-06T19:16:40.490Z,417.63
2019-02-06T19:19:08.311Z,410.63
2019-02-06T19:21:36.137Z,418.07
2019-02-06T19:24:06.584Z,411.57
2019-02-06T19:26:34.385Z,390.50
2019-02-06T19:29:02.719Z,402.40
2019-02-06T19:31:30.885Z,418.57
2019-02-06T19:33:59.739Z,436.47
2019-02-06T19:36:28.069Z,415.60
2019-02-06T19:38:56.688Z,461.83
2019-02-06T19:41:26.717Z,435.13
2019-02-06T19:43:55.218Z,423.17
2019-02-06T19:46:23.705Z,443.00
2019-02-06T19:48:52.313Z,428.90
2019-02-06T19:51:21.191Z,430.37
2019-02-06T19:53:50.389Z,433.63
2019-02-06T19:56:20.301Z,451.53
2019-02-06T19:58:49.235Z,435.27
2019-02-06T20:01:19.647Z,444.63
2019-02-06T20:03:48.622Z,422.43
2019-02-06T20:06:30.078Z,442.17
2019-02-06T20:09:02.967Z,422.00
2019-02-06T20:11:33.583Z,415.93
2019-02-06T20:14:02.174Z,428.30
2019-02-06T20:16:32.559Z,419.20
2019-02-06T20:19:01.160Z,425.17
2019-02-06T20:21:29.655Z,437.03
2019-02-06T20:23:58.740Z,450.80
2019-02-06T20:26:27.294Z,449.80
2019-02-06T20:29:05.106Z,425.43
2019-02-06T20:31:37.326Z,433.70
2019-02-06T20:34:08.767Z,442.63
2019-02-06T20:36:39.370Z,443.40
2019-02-06T20:39:10.978Z,446.70
2019-02-06T20:41:42.935Z,437.77
2019-02-06T20:44:14.289Z,458.27
2019-02-06T20:46:42.633Z,442.90
2019-02-06T20:49:21.880Z,423.33
2019-02-06T20:51:54.185Z,488.83
2019-02-06T20:54:27.126Z,484.30
2019-02-06T20:56:55.199Z,485.93
2019-02-06T20:59:24.607Z,488.80
2019-02-06T21:01:53.091Z,465.50
2019-02-06T21:04:20.974Z,488.13
2019-02-06T21:06:57.991Z,450.87
2019-02-06T21:09:25.721Z,487.23
2019-02-06T21:11:53.475Z,464.27
2019-02-06T21:14:21.223Z,485.17
2019-02-06T21:16:48.793Z,482.07
2019-02-06T21:19:16.819Z,469.83
2019-02-06T21:21:44.448Z,477.63
2019-02-06T21:24:12.059Z,478.83
2019-02-06T21:26:40.226Z,479.43
2019-02-06T21:29:08.912Z,480.50
2019-02-06T21:34:55.613Z,464.53
2019-02-06T21:37:23.151Z,533.63
2019-02-06T21:39:50.769Z,498.53
2019-02-06T21:42:18.296Z,483.20
2019-02-06T21:44:46.225Z,486.13
2019-02-06T21:47:14.902Z,519.17
2019-02-06T21:49:42.465Z,447.23
2019-02-06T21:52:10.167Z,517.17
2019-02-06T21:54:37.697Z,439.23
2019-02-06T21:57:13.705Z,457.07
2019-02-06T21:59:45.196Z,431.03
2019-02-06T22:02:12.623Z,468.27
2019-02-06T22:04:40.641Z,472.23
2019-02-06T22:07:08.489Z,467.57
2019-02-06T22:09:36.302Z,426.90
2019-02-06T22:12:04.332Z,413.37
2019-02-06T22:14:31.922Z,406.83
2019-02-06T22:17:00.634Z,421.17
2019-02-06T22:19:28.308Z,416.90
2019-02-06T22:21:56.032Z,403.80
2019-02-06T22:24:23.616Z,413.00
2019-02-06T22:26:51.271Z,404.63
2019-02-06T22:29:19.084Z,414.77
2019-02-06T22:31:46.982Z,425.50
2019-02-06T22:34:15.366Z,435.23
2019-02-06T22:36:45.721Z,432.80
2019-02-06T22:39:14.348Z,429.90
2019-02-06T22:41:41.907Z,409.27
2019-02-06T22:44:09.559Z,428.03
2019-02-06T22:46:37.399Z,420.77
2019-02-06T22:49:05.085Z,416.00
2019-02-06T22:51:32.913Z,371.60
2019-02-06T22:54:00.607Z,414.40
2019-02-06T22:56:28.238Z,426.27
2019-02-06T22:58:55.770Z,423.77
2019-02-06T23:01:32.924Z,424.90
2019-02-06T23:04:00.512Z,439.10
2019-02-06T23:06:29.233Z,441.87
2019-02-06T23:08:56.893Z,460.53
2019-02-06T23:11:24.487Z,470.10
2019-02-06T23:13:52.046Z,462.27
2019-02-06T23:16:19.673Z,480.30
2019-02-06T23:18:48.281Z,449.57
2019-02-06T23:21:16.360Z,462.40
2019-02-06T23:23:44.021Z,427.30
2019-02-06T23:26:11.776Z,452.90
2019-02-06T23:28:39.476Z,451.60
2019-02-06T23:31:07.177Z,456.00
2019-02-06T23:33:34.794Z,431.63
2019-02-06T23:36:03.145Z,463.37
2019-02-06T23:38:31.214Z,441.00
2019-02-06T23:40:59.663Z,450.73
2019-02-06T23:43:27.366Z,461.00
2019-02-06T23:45:55.118Z,461.37
2019-02-06T23:48:22.790Z,457.53
2019-02-06T23:50:50.518Z,452.30
2019-02-06T23:53:18.276Z,456.73
2019-02-06T23:55:45.975Z,455.07
2019-02-06T23:58:13.401Z,441.83
